Ault, Minnesota
Current Conditions -  °F | °C
As of 3:21 PM on Friday 19 Dec 2014 (Local Time) from KTWM Reporting Station
Overcast Overcast  
Wind Chill: 21°   Ceiling: 1100
Heat Index: 27°   Visibility: 10mi
Dew Point: 23°   Wind: 5mph
Humidity: 86%   Direction: 200°SSW
Pressure: 30.17"   Gusts: NA
Location:  47.3998°N, 91.9141°W
Report Text: KTWM 192121Z AUTO 20004KT 10SM OVC011 M03/M05 A3017 RMK AO2
Loading
Personal Weather Stations






























Interactive Weather Map New forecast layout! Learn more

10-Day Weather Forecast

Advertisements
Track Severe Weather on mobile